createdAt,value
2022-10-18T00:00:22.790Z,101379.00
2022-10-18T00:02:50.407Z,101376.00
2022-10-18T00:05:17.940Z,101372.34
2022-10-18T00:07:45.257Z,101383.63
2022-10-18T00:10:12.969Z,101369.81
2022-10-18T00:12:40.582Z,101373.19
2022-10-18T00:15:08.666Z,101373.63
2022-10-18T00:17:37.460Z,101363.56
2022-10-18T00:20:06.645Z,101364.34
2022-10-18T00:22:35.348Z,101363.50
2022-10-18T00:25:03.079Z,101359.63
2022-10-18T00:27:30.906Z,101363.75
2022-10-18T00:29:58.283Z,101358.09
2022-10-18T00:32:26.125Z,101358.78
2022-10-18T00:34:53.576Z,101356.97
2022-10-18T00:37:20.921Z,101351.44
2022-10-18T00:39:48.609Z,101359.41
2022-10-18T00:42:21.366Z,101359.16
2022-10-18T00:44:48.852Z,101352.34
2022-10-18T00:47:18.017Z,101360.38
2022-10-18T00:49:49.349Z,101356.75
2022-10-18T00:52:28.960Z,101354.94
2022-10-18T00:54:57.095Z,101352.44
2022-10-18T00:57:25.465Z,101353.78
2022-10-18T00:59:53.459Z,101352.22
2022-10-18T01:02:21.727Z,101345.34
2022-10-18T01:04:49.484Z,101349.88
2022-10-18T01:07:26.134Z,101337.41
2022-10-18T01:09:59.675Z,101336.62
2022-10-18T01:13:05.041Z,101332.16
2022-10-18T01:15:51.204Z,101330.78
2022-10-18T01:18:34.878Z,101325.06
2022-10-18T01:21:26.903Z,101324.94
2022-10-18T01:24:18.553Z,101315.69
2022-10-18T01:26:51.890Z,101322.69
2022-10-18T01:29:38.066Z,101317.41
2022-10-18T01:32:12.794Z,101313.47
2022-10-18T01:34:42.425Z,101314.16
2022-10-18T01:37:13.688Z,101308.09
2022-10-18T01:39:44.497Z,101310.94
2022-10-18T01:42:15.105Z,101309.84
2022-10-18T01:44:44.258Z,101310.03
2022-10-18T01:47:12.545Z,101298.19
2022-10-18T01:49:39.999Z,101298.69
2022-10-18T01:54:45.090Z,101300.84
2022-10-18T01:57:19.838Z,101289.06
2022-10-18T01:59:58.161Z,101292.00
2022-10-18T02:02:57.771Z,101281.44
2022-10-18T02:05:48.459Z,101281.78
2022-10-18T02:08:39.208Z,101275.62
2022-10-18T02:11:07.393Z,101272.38
2022-10-18T02:13:40.746Z,101276.81
2022-10-18T02:16:12.277Z,101271.22
2022-10-18T02:18:48.553Z,101274.63
2022-10-18T02:21:18.457Z,101279.88
2022-10-18T02:23:46.296Z,101277.00
2022-10-18T02:26:14.904Z,101285.00
2022-10-18T02:28:42.922Z,101276.78
2022-10-18T02:31:22.715Z,101286.34
2022-10-18T02:33:57.524Z,101282.53
2022-10-18T02:36:32.036Z,101279.88
2022-10-18T02:39:04.276Z,101288.69
2022-10-18T02:41:31.829Z,101276.66
2022-10-18T02:43:59.528Z,101278.97
2022-10-18T02:48:59.382Z,101289.31
2022-10-18T02:51:26.992Z,101281.44
2022-10-18T02:53:54.342Z,101273.41
2022-10-18T02:56:21.692Z,101276.78
2022-10-18T02:58:49.291Z,101282.19
2022-10-18T03:01:16.688Z,101283.88
2022-10-18T03:03:44.073Z,101279.75
2022-10-18T03:06:11.741Z,101269.22
2022-10-18T03:08:39.171Z,101279.88
2022-10-18T03:11:06.798Z,101277.66
2022-10-18T03:13:34.630Z,101281.13
2022-10-18T03:16:02.127Z,101287.44
2022-10-18T03:18:29.495Z,101288.53
2022-10-18T03:20:57.096Z,101288.13
2022-10-18T03:23:24.447Z,101290.41
2022-10-18T03:25:51.776Z,101296.12
2022-10-18T03:28:19.352Z,101300.53
2022-10-18T03:30:46.698Z,101300.00
2022-10-18T03:33:14.087Z,101294.34
2022-10-18T03:35:41.667Z,101303.94
2022-10-18T03:38:09.052Z,101306.94
2022-10-18T03:40:36.401Z,101299.16
2022-10-18T03:43:03.999Z,101305.94
2022-10-18T03:45:31.737Z,101300.66
2022-10-18T03:47:59.205Z,101298.94
2022-10-18T03:50:26.849Z,101304.34
2022-10-18T03:52:55.458Z,101302.09
2022-10-18T03:55:22.832Z,101302.09
2022-10-18T03:57:50.446Z,101308.84
2022-10-18T04:00:17.806Z,101311.41
2022-10-18T04:02:45.406Z,101317.47
2022-10-18T04:05:14.121Z,101315.88
2022-10-18T04:07:41.488Z,101313.47
2022-10-18T04:10:09.320Z,101307.53
2022-10-18T04:12:36.715Z,101308.44
2022-10-18T04:15:04.436Z,101306.41
2022-10-18T04:17:32.291Z,101300.84
2022-10-18T04:19:59.797Z,101303.53
2022-10-18T04:22:27.319Z,101300.94
2022-10-18T04:24:56.817Z,101301.28
2022-10-18T04:27:24.519Z,101301.97
2022-10-18T04:29:51.847Z,101306.84
2022-10-18T04:32:19.456Z,101299.53
2022-10-18T04:34:46.815Z,101300.19
2022-10-18T04:37:14.235Z,101293.69
2022-10-18T04:39:49.767Z,101290.19
2022-10-18T04:42:20.295Z,101293.63
2022-10-18T04:44:47.906Z,101291.34
2022-10-18T04:47:16.063Z,101284.22
2022-10-18T04:49:43.597Z,101273.87
2022-10-18T04:52:11.517Z,101280.97
2022-10-18T04:54:38.884Z,101270.41
2022-10-18T04:57:06.253Z,101272.22
2022-10-18T04:59:33.871Z,101268.06
2022-10-18T05:02:01.353Z,101269.62
2022-10-18T05:04:28.730Z,101266.56
2022-10-18T05:06:56.364Z,101260.56
2022-10-18T05:09:24.889Z,101260.22
2022-10-18T05:11:52.321Z,101263.97
2022-10-18T05:14:19.977Z,101266.59
2022-10-18T05:16:47.479Z,101264.84
2022-10-18T05:19:14.853Z,101263.53
2022-10-18T05:21:42.479Z,101267.50
2022-10-18T05:24:11.767Z,101277.00
2022-10-18T05:26:39.213Z,101266.12
2022-10-18T05:29:06.979Z,101266.81
2022-10-18T05:31:34.445Z,101264.09
2022-10-18T05:34:02.008Z,101273.16
2022-10-18T05:36:29.650Z,101262.06
2022-10-18T05:39:00.886Z,101269.00
2022-10-18T05:41:31.927Z,101275.50
2022-10-18T05:44:03.921Z,101271.97
2022-10-18T05:46:31.914Z,101275.00
2022-10-18T05:48:59.282Z,101276.09
2022-10-18T05:51:26.605Z,101271.28
2022-10-18T05:53:54.818Z,101262.97
2022-10-18T05:56:22.163Z,101272.75
2022-10-18T05:58:51.009Z,101271.94
2022-10-18T06:01:18.878Z,101269.31
2022-10-18T06:03:46.966Z,101272.88
2022-10-18T06:06:14.663Z,101265.31
2022-10-18T06:08:43.000Z,101265.59
2022-10-18T06:11:16.511Z,101269.38
2022-10-18T06:13:48.721Z,101272.72
2022-10-18T06:16:18.966Z,101270.72
2022-10-18T06:18:51.243Z,101276.25
2022-10-18T06:21:20.173Z,101279.81
2022-10-18T06:23:56.187Z,101277.87
2022-10-18T06:26:24.083Z,101285.53
2022-10-18T06:28:51.548Z,101280.78
2022-10-18T06:31:19.220Z,101279.12
2022-10-18T06:33:47.103Z,101280.41
2022-10-18T06:36:19.506Z,101283.91
2022-10-18T06:38:47.210Z,101273.50
2022-10-18T06:41:14.945Z,101271.19
2022-10-18T06:43:42.302Z,101278.84
2022-10-18T06:46:09.991Z,101278.47
2022-10-18T06:48:39.034Z,101278.53
2022-10-18T06:51:07.562Z,101285.31
2022-10-18T06:53:43.815Z,101291.72
2022-10-18T06:56:16.033Z,101282.69
2022-10-18T06:58:43.743Z,101295.81
2022-10-18T07:01:16.169Z,101290.09
2022-10-18T07:03:44.913Z,101293.88
2022-10-18T07:06:13.667Z,101301.59
2022-10-18T07:08:41.503Z,101301.19
2022-10-18T07:11:14.664Z,101292.44
2022-10-18T07:13:42.076Z,101291.09
2022-10-18T07:16:17.390Z,101287.25
2022-10-18T07:18:51.123Z,101294.09
2022-10-18T07:21:21.364Z,101287.34
2022-10-18T07:23:49.458Z,101280.75
2022-10-18T07:26:29.938Z,101269.66
2022-10-18T07:29:05.609Z,101272.16
2022-10-18T07:31:33.476Z,101266.75
2022-10-18T07:34:01.160Z,101262.66
2022-10-18T07:36:28.522Z,101264.75
2022-10-18T07:38:56.202Z,101260.59
2022-10-18T07:41:23.890Z,101263.13
2022-10-18T07:43:52.669Z,101258.09
2022-10-18T07:46:21.631Z,101265.91
2022-10-18T07:48:49.360Z,101269.53
2022-10-18T07:51:18.168Z,101268.38
2022-10-18T07:53:45.647Z,101269.03
2022-10-18T07:56:20.938Z,101269.59
2022-10-18T07:58:53.542Z,101266.25
2022-10-18T08:01:22.586Z,101267.91
2022-10-18T08:03:50.866Z,101256.63
2022-10-18T08:06:19.555Z,101252.75
2022-10-18T08:08:48.100Z,101249.09
2022-10-18T08:11:18.922Z,101242.00
2022-10-18T08:13:46.342Z,101246.84
2022-10-18T08:16:20.385Z,101232.63
2022-10-18T08:18:48.239Z,101229.84
2022-10-18T08:21:16.729Z,101230.75
2022-10-18T08:23:44.605Z,101232.66
2022-10-18T08:26:14.955Z,101235.03
2022-10-18T08:28:49.063Z,101225.28
2022-10-18T08:31:21.941Z,101220.66
2022-10-18T08:33:49.301Z,101230.94
2022-10-18T08:36:19.379Z,101226.16
2022-10-18T08:38:47.092Z,101219.16
2022-10-18T08:41:26.745Z,101213.63
2022-10-18T08:44:07.191Z,101215.47
2022-10-18T08:46:36.517Z,101206.47
2022-10-18T08:49:04.504Z,101205.28
2022-10-18T08:51:38.048Z,101199.22
2022-10-18T08:54:17.110Z,101193.97
2022-10-18T08:56:47.820Z,101198.16
2022-10-18T08:59:15.590Z,101188.31
2022-10-18T09:02:11.468Z,101178.34
2022-10-18T09:04:56.608Z,101179.22
2022-10-18T09:07:59.370Z,101181.47
2022-10-18T09:13:55.413Z,101171.19
2022-10-18T09:17:00.277Z,101170.09
2022-10-18T09:19:42.459Z,101167.84
2022-10-18T09:22:15.237Z,101161.16
2022-10-18T09:25:16.329Z,101168.81
2022-10-18T09:28:19.087Z,101157.44
2022-10-18T09:31:08.071Z,101154.47
2022-10-18T09:33:54.399Z,101149.00
2022-10-18T09:36:30.555Z,101137.16
2022-10-18T09:39:01.697Z,101135.84
2022-10-18T09:41:52.521Z,101131.34
2022-10-18T09:44:40.054Z,101130.31
2022-10-18T09:47:16.836Z,101133.41
2022-10-18T09:50:00.316Z,101133.00
2022-10-18T09:52:34.433Z,101129.03
2022-10-18T09:55:18.985Z,101119.38
2022-10-18T09:57:50.506Z,101117.94
2022-10-18T10:00:26.605Z,101115.31
2022-10-18T10:02:54.483Z,101121.16
2022-10-18T10:05:21.976Z,101114.28
2022-10-18T10:07:49.395Z,101110.56
2022-10-18T10:10:21.684Z,101108.00
2022-10-18T10:13:04.165Z,101106.78
2022-10-18T10:15:36.956Z,101092.72
2022-10-18T10:18:21.341Z,101087.59
2022-10-18T10:20:52.597Z,101087.75
2022-10-18T10:23:45.085Z,101084.66
2022-10-18T10:26:25.737Z,101084.16
2022-10-18T10:28:53.148Z,101086.69
2022-10-18T10:31:27.893Z,101084.59
2022-10-18T10:34:06.718Z,101082.62
2022-10-18T10:36:35.183Z,101065.66
2022-10-18T10:39:22.450Z,101065.25
2022-10-18T10:41:53.732Z,101067.09
2022-10-18T10:44:23.498Z,101057.25
2022-10-18T10:46:51.888Z,101050.34
2022-10-18T10:52:27.035Z,101039.09
2022-10-18T10:55:05.857Z,101037.03
2022-10-18T10:57:38.896Z,101037.94
2022-10-18T11:00:06.629Z,101026.66
2022-10-18T11:02:36.173Z,101030.88
2022-10-18T11:05:23.944Z,101030.59
2022-10-18T11:07:53.560Z,101023.06
2022-10-18T11:10:24.714Z,101024.75
2022-10-18T11:13:03.161Z,101023.78
2022-10-18T11:15:45.304Z,101022.06
2022-10-18T11:18:30.333Z,101009.16
2022-10-18T11:21:08.192Z,101002.63
2022-10-18T11:23:38.102Z,101003.56
2022-10-18T11:26:11.710Z,101004.09
2022-10-18T11:28:47.917Z,101002.94
2022-10-18T11:31:51.173Z,100999.66
2022-10-18T11:34:21.384Z,100992.00
2022-10-18T11:37:33.397Z,100993.47
2022-10-18T11:40:03.473Z,100977.38
2022-10-18T11:42:59.519Z,100979.13
2022-10-18T11:45:38.728Z,100967.66
2022-10-18T11:48:18.281Z,100961.63
2022-10-18T11:50:54.133Z,100964.28
2022-10-18T11:53:26.792Z,100959.25
2022-10-18T11:56:14.808Z,100959.19
2022-10-18T11:59:11.216Z,100945.97
2022-10-18T12:01:43.955Z,100946.66
2022-10-18T12:04:20.680Z,100944.03
2022-10-18T12:06:51.076Z,100937.06
2022-10-18T12:09:27.714Z,100938.00
2022-10-18T12:12:02.039Z,100925.56
2022-10-18T12:14:33.568Z,100926.06
2022-10-18T12:19:55.804Z,100918.56
2022-10-18T12:22:33.484Z,100915.00
2022-10-18T12:25:01.990Z,100909.69
2022-10-18T12:27:41.211Z,100906.88
2022-10-18T12:30:22.305Z,100912.97
2022-10-18T12:33:03.364Z,100901.56
2022-10-18T12:36:00.412Z,100898.44
2022-10-18T12:38:31.303Z,100894.56
2022-10-18T12:40:59.426Z,100886.28
2022-10-18T12:43:36.526Z,100889.94
2022-10-18T12:46:13.502Z,100887.31
2022-10-18T12:48:45.309Z,100887.28
2022-10-18T12:51:21.219Z,100881.03
2022-10-18T12:54:09.734Z,100871.44
2022-10-18T12:56:44.295Z,100866.72
2022-10-18T12:59:17.996Z,100860.13
2022-10-18T13:01:51.602Z,100854.47
2022-10-18T13:04:28.031Z,100854.88
2022-10-18T13:06:59.469Z,100851.22
2022-10-18T13:09:29.372Z,100851.84
2022-10-18T13:12:10.283Z,100843.75
2022-10-18T13:15:26.289Z,100842.94
2022-10-18T13:18:04.747Z,100845.56
2022-10-18T13:20:36.769Z,100843.25
2022-10-18T13:23:34.040Z,100847.88
2022-10-18T13:26:23.335Z,100845.72
2022-10-18T13:28:53.362Z,100845.81
2022-10-18T13:31:29.529Z,100838.16
2022-10-18T13:34:18.659Z,100837.56
2022-10-18T13:36:59.463Z,100838.03
2022-10-18T13:39:27.655Z,100834.00
2022-10-18T13:41:58.130Z,100836.34
2022-10-18T13:44:32.579Z,100833.16
2022-10-18T13:47:00.142Z,100827.59
2022-10-18T13:49:39.557Z,100826.09
2022-10-18T13:52:25.691Z,100829.81
2022-10-18T13:55:21.137Z,100825.31
2022-10-18T13:57:57.821Z,100828.88
2022-10-18T14:00:58.452Z,100815.63
2022-10-18T14:03:57.586Z,100807.84
2022-10-18T14:06:28.632Z,100812.19
2022-10-18T14:09:06.249Z,100809.75
2022-10-18T14:11:46.084Z,100801.19
2022-10-18T14:14:36.702Z,100806.72
2022-10-18T14:17:18.051Z,100806.53
2022-10-18T14:20:14.415Z,100792.38
2022-10-18T14:22:53.690Z,100797.03
2022-10-18T14:25:27.150Z,100792.50
2022-10-18T14:28:14.661Z,100792.66
2022-10-18T14:31:03.355Z,100788.25
2022-10-18T14:33:34.774Z,100789.06
2022-10-18T14:36:12.928Z,100785.25
2022-10-18T14:39:00.830Z,100777.62
2022-10-18T14:41:35.018Z,100775.00
2022-10-18T14:44:14.656Z,100777.13
2022-10-18T14:46:51.088Z,100763.28
2022-10-18T14:49:20.074Z,100763.94
2022-10-18T14:51:51.418Z,100767.62
2022-10-18T14:54:24.082Z,100762.37
2022-10-18T14:56:54.060Z,100760.66
2022-10-18T14:59:26.844Z,100760.66
2022-10-18T15:02:02.559Z,100758.00
2022-10-18T15:04:33.076Z,100755.37
2022-10-18T15:07:03.783Z,100753.47
2022-10-18T15:09:34.585Z,100757.53
2022-10-18T15:12:06.682Z,100753.19
2022-10-18T15:14:34.970Z,100755.84
2022-10-18T15:17:14.365Z,100752.31
2022-10-18T15:19:54.537Z,100752.91
2022-10-18T15:22:31.744Z,100745.72
2022-10-18T15:25:06.074Z,100743.75
2022-10-18T15:27:36.881Z,100733.91
2022-10-18T15:30:37.341Z,100735.66
2022-10-18T15:33:10.693Z,100735.59
2022-10-18T15:35:39.198Z,100738.91
2022-10-18T15:38:15.789Z,100733.25
2022-10-18T15:40:43.790Z,100728.22
2022-10-18T15:43:23.573Z,100732.50
2022-10-18T15:45:53.271Z,100743.09
2022-10-18T15:48:24.406Z,100748.25
2022-10-18T15:51:06.223Z,100739.56
2022-10-18T15:53:35.609Z,100734.22
2022-10-18T15:56:10.934Z,100732.41
2022-10-18T15:58:46.395Z,100723.00
2022-10-18T16:01:22.060Z,100732.22
2022-10-18T16:03:50.717Z,100721.47
2022-10-18T16:06:18.594Z,100721.41
2022-10-18T16:08:51.119Z,100718.09
2022-10-18T16:11:24.189Z,100722.22
2022-10-18T16:13:55.138Z,100729.06
2022-10-18T16:16:27.472Z,100725.41
2022-10-18T16:18:56.095Z,100736.78
2022-10-18T16:21:29.974Z,100728.56
2022-10-18T16:23:57.878Z,100740.00
2022-10-18T16:26:26.185Z,100750.84
2022-10-18T16:28:54.431Z,100750.13
2022-10-18T16:31:24.347Z,100742.84
2022-10-18T16:33:52.582Z,100743.09
2022-10-18T16:36:22.594Z,100755.75
2022-10-18T16:38:50.590Z,100753.22
2022-10-18T16:41:18.446Z,100752.34
2022-10-18T16:43:47.020Z,100762.44
2022-10-18T16:46:17.572Z,100757.91
2022-10-18T16:48:45.538Z,100757.88
2022-10-18T16:51:13.014Z,100763.47
2022-10-18T16:53:41.373Z,100754.56
2022-10-18T16:56:30.579Z,100753.34
2022-10-18T16:58:58.990Z,100748.06
2022-10-18T17:01:26.797Z,100755.59
2022-10-18T17:03:55.234Z,100752.44
2022-10-18T17:06:29.748Z,100757.59
2022-10-18T17:08:57.807Z,100753.62
2022-10-18T17:11:27.517Z,100754.34
2022-10-18T17:13:55.890Z,100753.44
2022-10-18T17:16:32.396Z,100760.78
2022-10-18T17:19:03.091Z,100759.41
2022-10-18T17:21:31.968Z,100763.22
2022-10-18T17:24:01.642Z,100766.41
2022-10-18T17:26:30.168Z,100771.63
2022-10-18T17:29:00.965Z,100765.41
2022-10-18T17:31:30.335Z,100767.91
2022-10-18T17:34:00.236Z,100769.22
2022-10-18T17:36:28.140Z,100769.00
2022-10-18T17:38:56.621Z,100760.72
2022-10-18T17:41:24.270Z,100757.44
2022-10-18T17:43:52.061Z,100752.25
2022-10-18T17:46:20.488Z,100755.69
2022-10-18T17:48:47.996Z,100759.00
2022-10-18T17:51:17.401Z,100746.66
2022-10-18T17:53:45.416Z,100741.31
2022-10-18T17:56:13.722Z,100747.34
2022-10-18T17:58:43.605Z,100752.97
2022-10-18T18:01:17.652Z,100751.78
2022-10-18T18:03:45.432Z,100758.22
2022-10-18T18:06:31.120Z,100754.84
2022-10-18T18:09:05.379Z,100761.81
2022-10-18T18:11:33.972Z,100762.59
2022-10-18T18:14:02.264Z,100756.53
2022-10-18T18:16:30.599Z,100756.19
2022-10-18T18:18:59.191Z,100747.72
2022-10-18T18:21:27.828Z,100745.47
2022-10-18T18:23:56.125Z,100743.59
2022-10-18T18:26:24.110Z,100745.56
2022-10-18T18:28:52.520Z,100741.50
2022-10-18T18:31:24.266Z,100746.47
2022-10-18T18:33:53.811Z,100746.63
2022-10-18T18:36:22.549Z,100742.91
2022-10-18T18:38:55.445Z,100749.37
2022-10-18T18:41:27.060Z,100745.94
2022-10-18T18:43:58.049Z,100742.47
2022-10-18T18:46:28.548Z,100729.00
2022-10-18T18:49:02.181Z,100735.09
2022-10-18T18:51:30.404Z,100722.09
2022-10-18T18:53:58.335Z,100713.78
2022-10-18T18:56:27.601Z,100718.37
2022-10-18T18:58:57.116Z,100724.03
2022-10-18T19:01:27.269Z,100735.69
2022-10-18T19:03:56.530Z,100728.66
2022-10-18T19:06:39.118Z,100732.00
2022-10-18T19:09:22.849Z,100720.31
2022-10-18T19:11:56.348Z,100722.59
2022-10-18T19:14:25.949Z,100712.63
2022-10-18T19:16:56.826Z,100712.28
2022-10-18T19:19:26.789Z,100713.34
2022-10-18T19:21:56.563Z,100717.63
2022-10-18T19:24:25.414Z,100704.81
2022-10-18T19:26:58.801Z,100697.69
2022-10-18T19:29:32.014Z,100706.53
2022-10-18T19:32:03.111Z,100712.16
2022-10-18T19:34:32.929Z,100704.91
2022-10-18T19:37:01.436Z,100701.25
2022-10-18T19:39:34.359Z,100705.78
2022-10-18T19:42:06.572Z,100706.00
2022-10-18T19:44:37.541Z,100703.91
2022-10-18T19:47:06.742Z,100701.72
2022-10-18T19:49:34.861Z,100703.31
2022-10-18T19:52:02.683Z,100703.09
2022-10-18T19:54:30.785Z,100710.47
2022-10-18T19:56:58.465Z,100702.50
2022-10-18T19:59:26.421Z,100706.97
2022-10-18T20:01:54.580Z,100697.84
2022-10-18T20:04:22.512Z,100699.84
2022-10-18T20:06:50.317Z,100694.16
2022-10-18T20:09:20.489Z,100692.94
2022-10-18T20:11:48.867Z,100693.41
2022-10-18T20:14:16.297Z,100699.56
2022-10-18T20:16:43.661Z,100697.31
2022-10-18T20:19:11.727Z,100692.66
2022-10-18T20:21:39.969Z,100692.22
2022-10-18T20:24:08.410Z,100690.56
2022-10-18T20:26:36.125Z,100686.44
2022-10-18T20:29:04.424Z,100689.19
2022-10-18T20:31:35.606Z,100691.28
2022-10-18T20:34:05.273Z,100689.13
2022-10-18T20:36:33.233Z,100685.91
2022-10-18T20:39:00.870Z,100680.91
2022-10-18T20:41:30.740Z,100686.00
2022-10-18T20:44:03.947Z,100686.44
2022-10-18T20:46:33.519Z,100688.69
2022-10-18T20:49:01.247Z,100682.69
2022-10-18T20:51:28.866Z,100666.09
2022-10-18T20:53:56.519Z,100674.13
2022-10-18T20:56:26.705Z,100672.16
2022-10-18T20:58:56.340Z,100671.25
2022-10-18T21:01:29.147Z,100672.94
2022-10-18T21:03:58.097Z,100673.28
2022-10-18T21:06:30.910Z,100670.87
2022-10-18T21:09:00.560Z,100661.94
2022-10-18T21:11:29.982Z,100665.50
2022-10-18T21:14:00.141Z,100659.25
2022-10-18T21:16:28.465Z,100656.03
2022-10-18T21:18:55.835Z,100658.19
2022-10-18T21:21:24.779Z,100662.53
2022-10-18T21:23:52.742Z,100667.34
2022-10-18T21:26:27.114Z,100666.53
2022-10-18T21:28:58.592Z,100660.28
2022-10-18T21:31:28.194Z,100666.78
2022-10-18T21:33:57.540Z,100665.03
2022-10-18T21:36:25.914Z,100664.47
2022-10-18T21:38:53.798Z,100652.78
2022-10-18T21:41:21.978Z,100656.59
2022-10-18T21:43:51.902Z,100646.34
2022-10-18T21:46:21.071Z,100643.56
2022-10-18T21:48:53.439Z,100630.50
2022-10-18T21:51:22.448Z,100629.56
2022-10-18T21:53:52.574Z,100621.44
2022-10-18T21:56:28.105Z,100618.53
2022-10-18T21:58:56.281Z,100613.31
2022-10-18T22:01:25.954Z,100616.44
2022-10-18T22:03:55.074Z,100618.38
2022-10-18T22:06:22.969Z,100612.56
2022-10-18T22:08:53.099Z,100607.28
2022-10-18T22:11:32.516Z,100618.91
2022-10-18T22:14:00.399Z,100622.91
2022-10-18T22:16:28.461Z,100618.72
2022-10-18T22:19:00.780Z,100623.34
2022-10-18T22:21:30.078Z,100615.00
2022-10-18T22:23:58.060Z,100610.94
2022-10-18T22:26:30.540Z,100609.97
2022-10-18T22:29:01.132Z,100606.25
2022-10-18T22:31:31.602Z,100604.91
2022-10-18T22:34:03.112Z,100597.44
2022-10-18T22:36:32.754Z,100590.56
2022-10-18T22:39:00.937Z,100589.59
2022-10-18T22:41:28.444Z,100590.09
2022-10-18T22:43:58.409Z,100599.13
2022-10-18T22:46:28.729Z,100592.66
2022-10-18T22:48:56.075Z,100596.31
2022-10-18T22:51:23.591Z,100600.34
2022-10-18T22:53:51.248Z,100588.31
2022-10-18T22:56:20.877Z,100587.13
2022-10-18T22:58:48.329Z,100590.28
2022-10-18T23:01:23.209Z,100600.03
2022-10-18T23:03:55.263Z,100596.78
2022-10-18T23:06:30.361Z,100603.19
2022-10-18T23:08:58.235Z,100593.34
2022-10-18T23:11:26.896Z,100594.03
2022-10-18T23:13:54.388Z,100582.19
2022-10-18T23:16:22.086Z,100594.13
2022-10-18T23:18:51.668Z,100579.44
2022-10-18T23:21:19.627Z,100574.62
2022-10-18T23:23:47.342Z,100568.38
2022-10-18T23:26:17.578Z,100582.03
2022-10-18T23:28:47.036Z,100577.25
2022-10-18T23:31:23.647Z,100571.94
2022-10-18T23:33:53.314Z,100569.81
2022-10-18T23:36:21.674Z,100576.03
2022-10-18T23:38:49.302Z,100567.25
2022-10-18T23:41:17.237Z,100570.34
2022-10-18T23:43:45.166Z,100569.72
2022-10-18T23:46:13.466Z,100568.09
2022-10-18T23:48:40.838Z,100568.75
2022-10-18T23:51:08.526Z,100561.75
2022-10-18T23:53:36.542Z,100562.09
2022-10-18T23:56:08.917Z,100553.25
2022-10-18T23:58:37.342Z,100561.91
